createdAt,value
2022-10-09T00:01:10.974Z,7.00
2022-10-09T00:04:12.524Z,6.90
2022-10-09T00:07:14.119Z,6.90
2022-10-09T00:10:15.702Z,6.70
2022-10-09T00:13:17.756Z,6.70
2022-10-09T00:16:20.764Z,6.70
2022-10-09T00:19:22.368Z,6.70
2022-10-09T00:22:24.275Z,6.60
2022-10-09T00:25:25.844Z,6.60
2022-10-09T00:28:30.244Z,6.60
2022-10-09T00:31:31.914Z,6.60
2022-10-09T00:34:33.663Z,6.50
2022-10-09T00:37:35.226Z,6.40
2022-10-09T00:40:38.136Z,6.40
2022-10-09T00:43:54.263Z,6.30
2022-10-09T00:46:55.842Z,6.30
2022-10-09T00:50:03.668Z,6.20
2022-10-09T00:53:05.298Z,6.20
2022-10-09T00:56:07.080Z,6.10
2022-10-09T00:59:09.326Z,6.10
2022-10-09T01:02:10.940Z,6.00
2022-10-09T01:05:13.666Z,6.00
2022-10-09T01:08:19.807Z,5.90
2022-10-09T01:11:37.268Z,5.90
2022-10-09T01:15:09.837Z,5.90
2022-10-09T01:18:26.488Z,5.80
2022-10-09T01:21:36.625Z,5.80
2022-10-09T01:24:47.266Z,5.80
2022-10-09T01:27:49.122Z,5.70
2022-10-09T01:30:51.078Z,5.70
2022-10-09T01:33:52.652Z,5.70
2022-10-09T01:36:56.716Z,5.70
2022-10-09T01:39:58.845Z,5.70
2022-10-09T01:43:01.345Z,5.70
2022-10-09T01:46:26.586Z,5.70
2022-10-09T01:49:43.222Z,5.70
2022-10-09T01:52:53.346Z,5.60
2022-10-09T01:56:07.241Z,5.70
2022-10-09T01:59:15.806Z,5.60
2022-10-09T02:02:19.331Z,5.70
2022-10-09T02:05:28.893Z,5.70
2022-10-09T02:08:33.255Z,5.70
2022-10-09T02:11:37.612Z,5.70
2022-10-09T02:14:39.447Z,5.70
2022-10-09T02:17:46.764Z,5.70
2022-10-09T02:20:54.589Z,5.70
2022-10-09T02:23:58.629Z,5.70
2022-10-09T02:27:01.916Z,5.60
2022-10-09T02:30:05.901Z,5.70
2022-10-09T02:33:07.548Z,5.60
2022-10-09T02:36:09.307Z,5.60
2022-10-09T02:39:11.282Z,5.50
2022-10-09T02:42:12.886Z,5.50
2022-10-09T02:45:14.520Z,5.50
2022-10-09T02:48:16.162Z,5.40
2022-10-09T02:51:17.890Z,5.40
2022-10-09T02:54:19.491Z,5.40
2022-10-09T02:57:21.050Z,5.40
2022-10-09T03:00:22.681Z,5.30
2022-10-09T03:03:24.501Z,5.30
2022-10-09T03:06:27.673Z,5.30
2022-10-09T03:09:33.384Z,5.30
2022-10-09T03:12:35.352Z,5.30
2022-10-09T03:15:37.281Z,5.30
2022-10-09T03:18:39.212Z,5.20
2022-10-09T03:21:40.788Z,5.20
2022-10-09T03:24:42.393Z,5.20
2022-10-09T03:27:43.969Z,5.20
2022-10-09T03:30:45.509Z,5.20
2022-10-09T03:33:47.281Z,5.10
2022-10-09T03:36:48.854Z,5.10
2022-10-09T03:39:50.477Z,5.10
2022-10-09T03:42:52.194Z,5.10
2022-10-09T03:45:53.829Z,5.10
2022-10-09T03:48:55.459Z,5.10
2022-10-09T03:51:57.084Z,5.10
2022-10-09T03:54:58.628Z,5.10
2022-10-09T03:58:00.232Z,5.10
2022-10-09T04:01:01.829Z,5.10
2022-10-09T04:04:03.549Z,5.20
2022-10-09T04:07:05.235Z,5.10
2022-10-09T04:10:07.124Z,5.10
2022-10-09T04:13:08.785Z,5.10
2022-10-09T04:16:12.662Z,5.10
2022-10-09T04:19:14.728Z,5.10
2022-10-09T04:22:16.372Z,5.10
2022-10-09T04:25:17.953Z,5.10
2022-10-09T04:28:19.571Z,5.10
2022-10-09T04:31:21.232Z,5.10
2022-10-09T04:34:22.940Z,5.00
2022-10-09T04:37:24.561Z,5.00
2022-10-09T04:40:26.148Z,5.10
2022-10-09T04:43:28.486Z,5.10
2022-10-09T04:46:30.105Z,5.20
2022-10-09T04:49:31.710Z,5.20
2022-10-09T04:52:33.352Z,5.30
2022-10-09T04:55:47.803Z,5.20
2022-10-09T04:58:50.174Z,5.30
2022-10-09T05:01:51.817Z,5.20
2022-10-09T05:04:53.804Z,5.20
2022-10-09T05:07:55.407Z,5.20
2022-10-09T05:11:05.528Z,5.10
2022-10-09T05:14:07.083Z,5.10
2022-10-09T05:17:14.078Z,5.10
2022-10-09T05:20:16.853Z,5.10
2022-10-09T05:23:18.427Z,5.10
2022-10-09T05:26:22.206Z,5.10
2022-10-09T05:29:23.865Z,5.10
2022-10-09T05:32:25.483Z,5.10
2022-10-09T05:35:27.089Z,5.20
2022-10-09T05:38:29.370Z,5.10
2022-10-09T05:41:30.963Z,5.20
2022-10-09T05:44:32.669Z,5.20
2022-10-09T05:47:34.303Z,5.20
2022-10-09T05:50:35.893Z,5.20
2022-10-09T05:53:38.416Z,5.20
2022-10-09T05:56:40.204Z,5.20
2022-10-09T05:59:41.849Z,5.30
2022-10-09T06:02:43.486Z,5.30
2022-10-09T06:05:45.107Z,5.30
2022-10-09T06:08:47.207Z,5.30
2022-10-09T06:11:50.765Z,5.40
2022-10-09T06:14:52.400Z,5.40
2022-10-09T06:17:53.997Z,5.50
2022-10-09T06:21:00.577Z,5.50
2022-10-09T06:24:04.086Z,5.60
2022-10-09T06:27:05.646Z,5.60
2022-10-09T06:30:08.010Z,5.70
2022-10-09T06:33:09.677Z,5.80
2022-10-09T06:36:16.603Z,5.90
2022-10-09T06:39:18.379Z,5.90
2022-10-09T06:42:20.023Z,6.10
2022-10-09T06:45:21.688Z,6.10
2022-10-09T06:48:23.288Z,6.20
2022-10-09T06:51:25.134Z,6.30
2022-10-09T06:54:27.485Z,6.40
2022-10-09T06:57:29.252Z,6.50
2022-10-09T07:00:30.826Z,6.50
2022-10-09T07:03:33.008Z,6.70
2022-10-09T07:06:39.692Z,6.80
2022-10-09T07:09:41.382Z,7.00
2022-10-09T07:12:42.950Z,7.20
2022-10-09T07:15:46.035Z,7.40
2022-10-09T07:18:48.101Z,7.50
2022-10-09T07:21:50.557Z,7.70
2022-10-09T07:24:52.376Z,7.90
2022-10-09T07:27:53.946Z,8.10
2022-10-09T07:30:56.306Z,8.30
2022-10-09T07:33:58.121Z,8.40
2022-10-09T07:37:00.112Z,8.60
2022-10-09T07:40:01.811Z,8.70
2022-10-09T07:43:03.381Z,8.90
2022-10-09T07:46:07.097Z,9.10
2022-10-09T07:49:08.920Z,9.20
2022-10-09T07:52:10.650Z,9.40
2022-10-09T07:55:12.327Z,9.50
2022-10-09T07:58:17.616Z,9.70
2022-10-09T08:01:24.993Z,9.90
2022-10-09T08:04:30.076Z,10.10
2022-10-09T08:07:34.886Z,10.30
2022-10-09T08:10:36.748Z,10.60
2022-10-09T08:13:39.451Z,10.90
2022-10-09T08:16:41.097Z,11.10
2022-10-09T08:19:42.895Z,11.30
2022-10-09T08:22:44.459Z,11.50
2022-10-09T08:25:47.487Z,11.60
2022-10-09T08:29:08.469Z,11.70
2022-10-09T08:32:10.011Z,11.80
2022-10-09T08:35:11.634Z,11.90
2022-10-09T08:38:31.035Z,12.10
2022-10-09T08:41:45.883Z,12.40
2022-10-09T08:44:49.642Z,12.60
2022-10-09T08:47:57.715Z,12.80
2022-10-09T08:51:00.048Z,12.90
2022-10-09T08:54:19.108Z,13.00
2022-10-09T08:57:22.593Z,13.10
2022-10-09T09:00:29.084Z,13.10
2022-10-09T09:03:33.635Z,13.10
2022-10-09T09:06:59.349Z,13.20
2022-10-09T09:10:38.340Z,13.30
2022-10-09T09:13:54.912Z,13.40
2022-10-09T09:17:20.418Z,13.60
2022-10-09T09:20:26.296Z,13.70
2022-10-09T09:23:37.984Z,13.80
2022-10-09T09:26:43.306Z,13.90
2022-10-09T09:30:11.319Z,13.90
2022-10-09T09:33:24.518Z,13.90
2022-10-09T09:36:38.586Z,13.90
2022-10-09T09:43:05.181Z,13.80
2022-10-09T09:46:17.780Z,13.90
2022-10-09T09:49:23.919Z,13.90
2022-10-09T09:52:29.980Z,14.00
2022-10-09T09:55:33.780Z,14.10
2022-10-09T09:58:40.467Z,14.10
2022-10-09T10:01:42.815Z,14.10
2022-10-09T10:04:53.377Z,14.20
2022-10-09T10:07:57.461Z,14.30
2022-10-09T10:11:01.386Z,14.30
2022-10-09T10:14:08.718Z,14.40
2022-10-09T10:17:29.304Z,14.50
2022-10-09T10:20:42.220Z,14.60
2022-10-09T10:27:18.582Z,14.70
2022-10-09T10:30:20.798Z,14.80
2022-10-09T10:33:27.198Z,15.00
2022-10-09T10:36:29.115Z,15.10
2022-10-09T10:39:38.957Z,15.20
2022-10-09T10:42:59.513Z,15.30
2022-10-09T10:46:33.759Z,15.40
2022-10-09T10:49:35.835Z,15.50
2022-10-09T10:52:52.730Z,15.60
2022-10-09T10:55:59.229Z,15.70
2022-10-09T10:59:28.091Z,15.70
2022-10-09T11:02:56.383Z,15.70
2022-10-09T11:06:07.254Z,15.80
2022-10-09T11:09:14.114Z,15.80
2022-10-09T11:12:48.719Z,15.90
2022-10-09T11:16:25.188Z,16.00
2022-10-09T11:19:51.708Z,16.10
2022-10-09T11:23:03.689Z,16.10
2022-10-09T11:26:28.277Z,16.10
2022-10-09T11:29:37.143Z,16.20
2022-10-09T11:32:47.578Z,16.40
2022-10-09T11:36:01.919Z,16.30
2022-10-09T11:39:14.946Z,16.30
2022-10-09T11:42:21.277Z,16.50
2022-10-09T11:45:49.909Z,16.40
2022-10-09T11:48:56.243Z,16.50
2022-10-09T11:52:20.380Z,16.70
2022-10-09T11:55:25.357Z,16.60
2022-10-09T11:58:26.991Z,16.70
2022-10-09T12:01:34.867Z,16.70
2022-10-09T12:04:54.095Z,16.70
2022-10-09T12:08:12.952Z,16.70
2022-10-09T12:11:19.152Z,16.70
2022-10-09T12:14:26.077Z,16.80
2022-10-09T12:17:27.721Z,16.70
2022-10-09T12:20:29.484Z,16.80
2022-10-09T12:23:37.836Z,16.80
2022-10-09T12:26:40.826Z,16.90
2022-10-09T12:29:50.462Z,16.90
2022-10-09T12:33:29.499Z,17.00
2022-10-09T12:36:31.734Z,17.10
2022-10-09T12:39:33.743Z,17.20
2022-10-09T12:42:35.467Z,17.30
2022-10-09T12:45:44.094Z,17.40
2022-10-09T12:48:46.333Z,17.20
2022-10-09T12:51:56.844Z,17.20
2022-10-09T12:54:58.832Z,17.00
2022-10-09T12:58:08.622Z,17.10
2022-10-09T13:01:15.700Z,17.10
2022-10-09T13:04:54.938Z,17.10
2022-10-09T13:07:56.647Z,17.30
2022-10-09T13:11:34.059Z,17.30
2022-10-09T13:14:42.623Z,17.40
2022-10-09T13:17:44.215Z,17.50
2022-10-09T13:20:45.855Z,17.60
2022-10-09T13:23:50.233Z,17.70
2022-10-09T13:26:51.864Z,17.70
2022-10-09T13:29:53.707Z,17.70
2022-10-09T13:32:55.603Z,17.50
2022-10-09T13:35:57.174Z,17.50
2022-10-09T13:38:58.752Z,17.40
2022-10-09T13:42:02.367Z,17.40
2022-10-09T13:45:05.644Z,17.40
2022-10-09T13:48:07.199Z,17.30
2022-10-09T13:51:08.881Z,17.30
2022-10-09T13:54:10.472Z,17.40
2022-10-09T13:57:12.131Z,17.40
2022-10-09T14:00:14.105Z,17.50
2022-10-09T14:03:16.570Z,17.50
2022-10-09T14:06:18.836Z,17.40
2022-10-09T14:09:20.640Z,17.40
2022-10-09T14:12:22.305Z,17.40
2022-10-09T14:15:23.896Z,17.40
2022-10-09T14:18:26.017Z,17.40
2022-10-09T14:21:28.365Z,17.50
2022-10-09T14:24:29.987Z,17.40
2022-10-09T14:27:31.682Z,17.40
2022-10-09T14:30:33.426Z,17.40
2022-10-09T14:33:35.056Z,17.40
2022-10-09T14:36:37.240Z,17.40
2022-10-09T14:39:38.953Z,17.40
2022-10-09T14:42:40.775Z,17.40
2022-10-09T14:45:42.312Z,17.40
2022-10-09T14:48:45.832Z,17.40
2022-10-09T14:51:47.615Z,17.50
2022-10-09T14:54:49.208Z,17.50
2022-10-09T14:57:50.830Z,17.50
2022-10-09T15:00:52.399Z,17.50
2022-10-09T15:03:54.108Z,17.50
2022-10-09T15:06:55.737Z,17.50
2022-10-09T15:09:57.752Z,17.50
2022-10-09T15:12:59.409Z,17.60
2022-10-09T15:16:11.445Z,17.50
2022-10-09T15:19:13.021Z,17.60
2022-10-09T15:22:14.627Z,17.50
2022-10-09T15:25:16.740Z,17.40
2022-10-09T15:28:19.064Z,17.30
2022-10-09T15:31:25.343Z,17.30
2022-10-09T15:34:28.553Z,17.10
2022-10-09T15:37:30.242Z,17.00
2022-10-09T15:40:31.848Z,17.00
2022-10-09T15:43:37.528Z,16.90
2022-10-09T15:46:40.706Z,16.90
2022-10-09T15:49:44.600Z,16.80
2022-10-09T15:52:46.421Z,16.80
2022-10-09T15:55:50.675Z,16.80
2022-10-09T15:58:53.978Z,16.80
2022-10-09T16:01:55.615Z,16.80
2022-10-09T16:04:57.292Z,16.60
2022-10-09T16:07:59.029Z,16.50
2022-10-09T16:14:10.502Z,16.30
2022-10-09T16:17:12.227Z,16.20
2022-10-09T16:20:13.892Z,16.10
2022-10-09T16:23:16.669Z,16.00
2022-10-09T16:26:21.950Z,15.90
2022-10-09T16:29:23.665Z,15.80
2022-10-09T16:32:25.236Z,15.70
2022-10-09T16:35:26.876Z,15.60
2022-10-09T16:38:28.523Z,15.50
2022-10-09T16:41:30.230Z,15.40
2022-10-09T16:44:31.825Z,15.20
2022-10-09T16:47:33.964Z,15.10
2022-10-09T16:50:41.281Z,15.10
2022-10-09T16:53:43.207Z,15.00
2022-10-09T16:56:44.799Z,14.90
2022-10-09T16:59:47.241Z,14.80
2022-10-09T17:02:48.943Z,14.70
2022-10-09T17:05:50.537Z,14.60
2022-10-09T17:08:54.563Z,14.50
2022-10-09T17:11:56.992Z,14.40
2022-10-09T17:14:58.796Z,14.30
2022-10-09T17:18:00.442Z,14.20
2022-10-09T17:21:04.051Z,14.10
2022-10-09T17:24:06.011Z,14.00
2022-10-09T17:27:09.816Z,13.90
2022-10-09T17:30:12.087Z,13.80
2022-10-09T17:33:17.605Z,13.70
2022-10-09T17:36:24.560Z,13.60
2022-10-09T17:39:26.205Z,13.50
2022-10-09T17:42:27.822Z,13.40
2022-10-09T17:45:29.457Z,13.30
2022-10-09T17:48:33.804Z,13.20
2022-10-09T17:51:38.856Z,13.10
2022-10-09T17:54:40.429Z,13.00
2022-10-09T17:57:42.003Z,12.90
2022-10-09T18:00:43.907Z,12.80
2022-10-09T18:03:45.696Z,12.80
2022-10-09T18:06:47.321Z,12.70
2022-10-09T18:09:50.919Z,12.60
2022-10-09T18:12:52.516Z,12.50
2022-10-09T18:15:54.823Z,12.50
2022-10-09T18:19:00.748Z,12.40
2022-10-09T18:22:02.315Z,12.30
2022-10-09T18:25:04.775Z,12.20
2022-10-09T18:28:06.747Z,12.10
2022-10-09T18:31:11.090Z,12.10
2022-10-09T18:34:12.756Z,12.00
2022-10-09T18:37:15.161Z,11.90
2022-10-09T18:40:17.063Z,11.90
2022-10-09T18:43:18.615Z,11.80
2022-10-09T18:46:24.374Z,11.70
2022-10-09T18:49:29.637Z,11.70
2022-10-09T18:52:31.364Z,11.60
2022-10-09T18:55:33.530Z,11.50
2022-10-09T18:58:35.936Z,11.50
2022-10-09T19:01:37.601Z,11.40
2022-10-09T19:04:39.487Z,11.30
2022-10-09T19:07:41.058Z,11.20
2022-10-09T19:10:42.844Z,11.10
2022-10-09T19:13:45.249Z,11.10
2022-10-09T19:16:47.118Z,11.00
2022-10-09T19:19:48.843Z,10.90
2022-10-09T19:22:50.498Z,10.80
2022-10-09T19:25:55.759Z,10.80
2022-10-09T19:28:57.316Z,10.70
2022-10-09T19:31:58.903Z,10.70
2022-10-09T19:35:00.483Z,10.60
2022-10-09T19:38:03.178Z,10.60
2022-10-09T19:41:11.289Z,10.60
2022-10-09T19:44:12.885Z,10.50
2022-10-09T19:47:15.863Z,10.50
2022-10-09T19:50:17.683Z,10.50
2022-10-09T19:53:19.260Z,10.40
2022-10-09T19:56:25.998Z,10.40
2022-10-09T19:59:27.824Z,10.30
2022-10-09T20:02:29.400Z,10.30
2022-10-09T20:05:32.389Z,10.30
2022-10-09T20:08:34.732Z,10.20
2022-10-09T20:11:36.979Z,10.20
2022-10-09T20:14:38.535Z,10.20
2022-10-09T20:17:40.207Z,10.10
2022-10-09T20:20:47.207Z,10.00
2022-10-09T20:23:48.792Z,9.90
2022-10-09T20:26:50.392Z,9.80
2022-10-09T20:29:52.943Z,9.70
2022-10-09T20:32:58.884Z,9.60
2022-10-09T20:36:01.258Z,9.60
2022-10-09T20:39:06.435Z,9.60
2022-10-09T20:42:08.461Z,9.60
2022-10-09T20:45:10.145Z,9.60
2022-10-09T20:48:12.143Z,9.50
2022-10-09T20:51:14.099Z,9.50
2022-10-09T20:54:17.994Z,9.40
2022-10-09T20:57:19.565Z,9.40
2022-10-09T21:00:21.424Z,9.40
2022-10-09T21:03:23.934Z,9.40
2022-10-09T21:06:26.089Z,9.40
2022-10-09T21:09:32.983Z,9.30
2022-10-09T21:12:34.932Z,9.30
2022-10-09T21:15:47.954Z,9.20
2022-10-09T21:18:55.173Z,9.30
2022-10-09T21:21:56.790Z,9.20
2022-10-09T21:24:58.370Z,9.30
2022-10-09T21:28:00.233Z,9.20
2022-10-09T21:31:06.613Z,9.20
2022-10-09T21:34:08.422Z,9.20
2022-10-09T21:37:22.086Z,9.20
2022-10-09T21:40:24.208Z,9.20
2022-10-09T21:43:25.864Z,9.10
2022-10-09T21:46:27.711Z,9.10
2022-10-09T21:49:29.438Z,9.10
2022-10-09T21:52:30.985Z,9.00
2022-10-09T21:55:33.258Z,9.00
2022-10-09T21:58:34.839Z,9.00
2022-10-09T22:01:36.630Z,8.90
2022-10-09T22:04:38.218Z,8.90
2022-10-09T22:07:39.867Z,8.80
2022-10-09T22:10:42.248Z,8.80
2022-10-09T22:13:44.032Z,8.80
2022-10-09T22:16:45.585Z,8.70
2022-10-09T22:19:47.277Z,8.70
2022-10-09T22:22:49.151Z,8.70
2022-10-09T22:26:01.747Z,8.70
2022-10-09T22:29:03.781Z,8.60
2022-10-09T22:32:05.935Z,8.50
2022-10-09T22:35:07.937Z,8.60
2022-10-09T22:38:09.493Z,8.50
2022-10-09T22:41:16.458Z,8.40
2022-10-09T22:44:18.069Z,8.40
2022-10-09T22:47:19.652Z,8.40
2022-10-09T22:50:21.196Z,8.30
2022-10-09T22:53:22.900Z,8.30
2022-10-09T22:56:36.521Z,8.30
2022-10-09T22:59:38.157Z,8.30
2022-10-09T23:02:40.076Z,8.30
2022-10-09T23:05:41.695Z,8.20
2022-10-09T23:08:45.010Z,8.20
2022-10-09T23:11:46.824Z,8.10
2022-10-09T23:14:48.442Z,8.10
2022-10-09T23:17:50.040Z,8.00
2022-10-09T23:20:51.652Z,8.00
2022-10-09T23:23:54.048Z,7.90
2022-10-09T23:26:55.667Z,7.80
2022-10-09T23:29:57.346Z,7.80
2022-10-09T23:32:59.003Z,7.80
2022-10-09T23:36:04.180Z,7.70
2022-10-09T23:39:06.686Z,7.70
2022-10-09T23:42:08.413Z,7.60
2022-10-09T23:45:10.375Z,7.50
2022-10-09T23:48:11.973Z,7.60
2022-10-09T23:51:14.647Z,7.60
2022-10-09T23:54:16.229Z,7.60
2022-10-09T23:57:17.872Z,7.50
